Time;durP1;ratioP1;P1;durP2;ratioP2;P2;SDS_P1;SDS_P2;PMS_P1;PMS_P2;Temp;Humidity;BMP_temperature;BMP_pressure;BME280_temperature;BME280_humidity;BME280_pressure;Samples;Min_cycle;Max_cycle;Signal;HPM_P1;HPM_P2
2023/12/06 00:00:20;;;;;;;22.50;12.60;;;;;;;-0.59;100.00;101839.10;106042;1251;60466;-81
2023/12/06 00:02:49;;;;;;;22.20;13.20;;;;;;;-0.60;100.00;101847.17;106110;1252;60507;-79
2023/12/06 00:05:16;;;;;;;20.10;12.40;;;;;;;-0.65;100.00;101847.14;106934;1250;72596;-75
2023/12/06 00:07:44;;;;;;;19.90;12.60;;;;;;;-0.67;100.00;101848.16;107615;1258;64368;-77
2023/12/06 00:10:11;;;;;;;20.50;13.30;;;;;;;-0.69;100.00;101852.95;106421;1251;71425;-78
2023/12/06 00:12:38;;;;;;;18.50;12.10;;;;;;;-0.69;100.00;101855.52;106230;1253;61201;-79
2023/12/06 00:15:06;;;;;;;18.80;12.70;;;;;;;-0.69;100.00;101852.95;105980;1254;60427;-78
2023/12/06 00:17:34;;;;;;;24.90;12.80;;;;;;;-0.66;100.00;101849.54;106132;1253;73775;-78
2023/12/06 00:20:01;;;;;;;17.80;12.20;;;;;;;-0.66;100.00;101843.70;106687;1251;63903;-78
2023/12/06 00:22:28;;;;;;;18.80;12.30;;;;;;;-0.65;100.00;101840.61;107447;1251;72784;-77
2023/12/06 00:24:55;;;;;;;20.70;11.60;;;;;;;-0.64;100.00;101841.83;107883;1253;60526;-78
2023/12/06 00:27:22;;;;;;;18.50;12.60;;;;;;;-0.65;100.00;101847.65;106261;1251;60446;-77
2023/12/06 00:29:50;;;;;;;21.70;12.10;;;;;;;-0.66;100.00;101853.50;106160;1251;72561;-78
2023/12/06 00:32:17;;;;;;;19.90;11.10;;;;;;;-0.67;100.00;101853.13;106047;1254;63702;-77
2023/12/06 00:34:44;;;;;;;18.50;11.90;;;;;;;-0.68;100.00;101851.25;106111;1251;72926;-80
2023/12/06 00:37:11;;;;;;;20.80;12.00;;;;;;;-0.70;100.00;101851.23;106071;1251;60415;-79
2023/12/06 00:39:38;;;;;;;17.10;12.70;;;;;;;-0.68;100.00;101856.58;105958;1250;60527;-79
2023/12/06 00:42:05;;;;;;;22.40;12.70;;;;;;;-0.67;100.00;101856.91;105939;1251;73664;-77
2023/12/06 00:44:32;;;;;;;20.40;12.00;;;;;;;-0.69;100.00;101852.61;105993;1254;64006;-77
2023/12/06 00:46:59;;;;;;;27.40;13.40;;;;;;;-0.69;100.00;101852.42;106038;1254;71183;-78
2023/12/06 00:49:26;;;;;;;31.40;13.50;;;;;;;-0.69;100.00;101854.16;106047;1254;60641;-79
2023/12/06 00:51:53;;;;;;;25.10;12.30;;;;;;;-0.68;100.00;101845.91;106058;1254;60409;-78
2023/12/06 00:54:20;;;;;;;24.90;11.90;;;;;;;-0.69;100.00;101847.98;105995;1254;73829;-79
2023/12/06 00:56:48;;;;;;;21.00;11.60;;;;;;;-0.73;100.00;101853.09;106055;1254;62672;-78
2023/12/06 00:59:15;;;;;;;22.00;11.30;;;;;;;-0.79;100.00;101851.34;106006;1254;72518;-78
2023/12/06 01:01:42;;;;;;;16.20;9.80;;;;;;;-0.83;100.00;101852.35;106005;1253;61139;-77
2023/12/06 01:04:08;;;;;;;15.10;9.50;;;;;;;-0.84;100.00;101852.17;105975;1251;60342;-77
2023/12/06 01:06:36;;;;;;;21.20;9.70;;;;;;;-0.86;100.00;101850.45;106011;1254;73683;-77
2023/12/06 01:09:05;;;;;;;15.10;10.30;;;;;;;-0.87;100.00;101850.77;106125;1254;63648;-76
2023/12/06 01:11:33;;;;;;;18.20;10.70;;;;;;;-0.90;100.00;101847.66;106114;1251;72494;-78
2023/12/06 01:14:00;;;;;;;15.60;9.80;;;;;;;-0.93;100.00;101841.81;106057;1252;62609;-77
2023/12/06 01:16:28;;;;;;;15.40;9.30;;;;;;;-0.95;100.00;101835.96;106046;1254;60408;-77
2023/12/06 01:18:55;;;;;;;15.20;8.90;;;;;;;-0.96;100.00;101830.28;106098;1253;72323;-78
2023/12/06 01:21:23;;;;;;;12.80;9.70;;;;;;;-0.99;100.00;101828.55;106037;1253;63703;-76
2023/12/06 01:23:50;;;;;;;19.30;9.80;;;;;;;-1.01;100.00;101825.45;105895;1254;72382;-79
2023/12/06 01:26:17;;;;;;;14.00;10.00;;;;;;;-1.05;100.00;101813.39;105891;1257;61189;-78
2023/12/06 01:28:44;;;;;;;14.10;8.70;;;;;;;-1.09;100.00;101796.55;105954;1251;60571;-77
2023/12/06 01:31:11;;;;;;;13.70;9.60;;;;;;;-1.15;100.00;101775.23;106074;1251;73898;-78
2023/12/06 01:33:38;;;;;;;13.60;10.70;;;;;;;-1.21;100.00;101778.95;106111;1254;63786;-78
2023/12/06 01:36:06;;;;;;;17.20;10.90;;;;;;;-1.28;100.00;101775.65;105927;1250;71057;-77
2023/12/06 01:38:33;;;;;;;20.00;12.00;;;;;;;-1.33;100.00;101774.77;105989;1253;60342;-78
2023/12/06 01:41:00;;;;;;;16.80;11.10;;;;;;;-1.34;100.00;101776.30;106291;1251;60533;-76
2023/12/06 01:43:28;;;;;;;21.20;11.80;;;;;;;-1.34;100.00;101769.60;107830;1254;72571;-76
2023/12/06 01:45:55;;;;;;;16.60;12.20;;;;;;;-1.35;100.00;101758.61;107573;1251;61601;-78
2023/12/06 01:48:22;;;;;;;20.00;13.30;;;;;;;-1.36;100.00;101760.67;107593;1251;71376;-77
2023/12/06 01:50:48;;;;;;;22.00;13.40;;;;;;;-1.36;100.00;101758.78;106232;1251;60942;-77
2023/12/06 01:53:15;;;;;;;26.60;15.10;;;;;;;-1.35;100.00;101754.50;106124;1251;60632;-77
2023/12/06 01:55:44;;;;;;;34.20;18.70;;;;;;;-1.34;100.00;101754.70;106137;1250;73775;-78
2023/12/06 01:58:11;;;;;;;30.80;17.90;;;;;;;-1.31;100.00;101749.56;106887;1253;62418;-78
2023/12/06 02:00:39;;;;;;;30.10;17.00;;;;;;;-1.29;100.00;101751.30;106296;1251;71613;-80
2023/12/06 02:03:06;;;;;;;33.80;18.30;;;;;;;-1.30;100.00;101745.62;105896;1255;60539;-79
2023/12/06 02:05:33;;;;;;;41.00;21.40;;;;;;;-1.31;100.00;101745.80;106008;1249;60408;-78
2023/12/06 02:08:00;;;;;;;36.10;18.30;;;;;;;-1.32;100.00;101740.80;105905;1251;73706;-79
2023/12/06 02:10:28;;;;;;;43.00;21.50;;;;;;;-1.32;100.00;101736.17;105970;1257;64004;-79
2023/12/06 02:12:55;;;;;;;28.70;15.00;;;;;;;-1.30;100.00;101734.13;105932;1251;71330;-80
2023/12/06 02:15:22;;;;;;;27.90;15.50;;;;;;;-1.31;100.00;101733.79;106094;1254;60325;-78
2023/12/06 02:17:50;;;;;;;30.00;17.50;;;;;;;-1.33;100.00;101728.28;106009;1251;60444;-79
2023/12/06 02:20:17;;;;;;;37.00;21.00;;;;;;;-1.37;100.00;101731.17;106688;1251;73525;-77
2023/12/06 02:22:44;;;;;;;33.60;22.90;;;;;;;-1.42;100.00;101714.14;106501;1254;64080;-79
2023/12/06 02:25:15;;;;;;;37.60;21.70;;;;;;;-1.45;100.00;101712.59;105887;1256;70398;-79
2023/12/06 02:27:42;;;;;;;41.80;21.70;;;;;;;-1.47;100.00;101706.57;105996;1250;60476;-82
2023/12/06 02:30:10;;;;;;;29.80;20.00;;;;;;;-1.46;100.00;101699.89;105963;1251;60507;-79
2023/12/06 02:32:38;;;;;;;23.40;14.50;;;;;;;-1.47;100.00;101685.13;105997;1253;73111;-80
2023/12/06 02:35:13;;;;;;;19.60;11.30;;;;;;;-1.50;100.00;101680.84;106030;1254;63621;-78
2023/12/06 02:37:40;;;;;;;14.00;10.90;;;;;;;-1.54;100.00;101679.93;105925;1254;72677;-77
2023/12/06 02:40:12;;;;;;;25.30;11.70;;;;;;;-1.57;100.00;101673.41;105975;1257;61098;-77
2023/12/06 02:42:39;;;;;;;18.60;13.10;;;;;;;-1.58;100.00;101681.10;106092;1250;60415;-78
2023/12/06 02:45:07;;;;;;;22.50;12.10;;;;;;;-1.57;100.00;101679.92;106062;1251;73729;-78
2023/12/06 02:47:34;;;;;;;18.10;12.20;;;;;;;-1.56;100.00;101674.42;106275;1254;62444;-78
2023/12/06 02:50:01;;;;;;;20.00;12.70;;;;;;;-1.55;100.00;101674.10;105931;1253;72335;-81
2023/12/06 02:52:28;;;;;;;18.20;11.00;;;;;;;-1.55;100.00;101678.56;105965;1253;60419;-78
2023/12/06 02:54:55;;;;;;;16.40;11.90;;;;;;;-1.54;100.00;101674.61;106001;1251;60417;-78
2023/12/06 02:57:22;;;;;;;19.80;10.80;;;;;;;-1.55;100.00;101673.77;106102;1254;72805;-77
2023/12/06 02:59:50;;;;;;;15.70;10.50;;;;;;;-1.56;100.00;101666.38;105997;1253;63802;-78
2023/12/06 03:02:18;;;;;;;17.60;10.30;;;;;;;-1.57;100.00;101667.91;105959;1254;72697;-78
2023/12/06 03:04:45;;;;;;;16.90;12.10;;;;;;;-1.61;100.00;101664.80;105993;1253;61919;-77
2023/12/06 03:07:12;;;;;;;18.90;11.80;;;;;;;-1.60;100.00;101670.97;105969;1251;60510;-78
2023/12/06 03:09:39;;;;;;;15.40;10.40;;;;;;;-1.60;100.00;101670.48;105983;1252;73923;-78
2023/12/06 03:12:07;;;;;;;15.00;10.90;;;;;;;-1.59;100.00;101666.19;105957;1253;63731;-78
2023/12/06 03:14:35;;;;;;;13.00;9.70;;;;;;;-1.61;100.00;101662.73;106619;1251;71663;-77
2023/12/06 03:17:02;;;;;;;18.60;10.50;;;;;;;-1.66;100.00;101665.61;108298;1253;60312;-77
2023/12/06 03:19:29;;;;;;;16.70;11.50;;;;;;;-1.72;100.00;101659.06;106696;1250;60456;-80
2023/12/06 03:24:13;;;;;;;14.00;10.10;;;;;;;-1.70;100.00;101648.79;102453;1291;601128;-80
2023/12/06 03:26:41;;;;;;;16.70;10.70;;;;;;;-1.73;100.00;101646.20;104858;1269;61994;-78
2023/12/06 03:29:09;;;;;;;18.10;11.00;;;;;;;-1.71;100.00;101644.34;104836;1271;59397;-77
2023/12/06 03:31:37;;;;;;;15.30;9.90;;;;;;;-1.72;100.00;101652.03;105287;1259;71157;-79
2023/12/06 03:34:04;;;;;;;18.20;9.90;;;;;;;-1.71;100.00;101653.59;105439;1263;63749;-76
2023/12/06 03:36:32;;;;;;;15.80;10.70;;;;;;;-1.71;100.00;101660.10;105609;1259;71280;-78
2023/12/06 03:39:00;;;;;;;13.10;10.70;;;;;;;-1.73;100.00;101665.73;105216;1256;236683;-77
2023/12/06 03:41:28;;;;;;;17.60;11.70;;;;;;;-1.77;100.00;101674.28;105604;1261;59350;-78
2023/12/06 03:43:55;;;;;;;17.40;10.60;;;;;;;-1.81;100.00;101683.16;105263;1264;71922;-81
2023/12/06 03:46:30;;;;;;;17.90;10.20;;;;;;;-1.80;100.00;101692.60;106117;1262;62529;-77
2023/12/06 03:48:57;;;;;;;15.10;10.60;;;;;;;-1.80;100.00;101695.86;106293;1261;72671;-75
2023/12/06 03:51:25;;;;;;;17.90;11.40;;;;;;;-1.80;100.00;101705.63;105689;1254;62163;-80
2023/12/06 03:53:53;;;;;;;19.90;11.70;;;;;;;-1.82;100.00;101708.33;105762;1255;59640;-79
2023/12/06 03:56:21;;;;;;;25.90;12.10;;;;;;;-1.84;100.00;101708.17;105724;1253;73229;-77
2023/12/06 03:58:49;;;;;;;19.70;11.80;;;;;;;-1.85;100.00;101722.03;105699;1254;62420;-76
2023/12/06 04:01:16;;;;;;;20.30;11.50;;;;;;;-1.84;100.00;101720.16;105735;1253;72476;-79
2023/12/06 04:03:44;;;;;;;20.60;11.50;;;;;;;-1.83;100.00;101726.52;106112;1257;60795;-77
2023/12/06 04:06:14;;;;;;;21.50;12.20;;;;;;;-1.82;100.00;101729.93;108265;1255;59631;-75
2023/12/06 04:08:42;;;;;;;25.80;12.30;;;;;;;-1.83;100.00;101736.63;106015;1256;73335;-77
2023/12/06 04:11:09;;;;;;;28.30;13.80;;;;;;;-1.84;100.00;101737.83;105775;1253;62516;-79
2023/12/06 04:13:38;;;;;;;23.40;12.90;;;;;;;-1.85;100.00;101737.13;105694;1257;72674;-79
2023/12/06 04:16:06;;;;;;;21.90;12.40;;;;;;;-1.85;100.00;101737.63;105712;1253;60787;-80
2023/12/06 04:18:34;;;;;;;23.10;12.50;;;;;;;-1.86;100.00;101737.97;105751;1258;59641;-79
2023/12/06 04:21:02;;;;;;;23.70;13.80;;;;;;;-1.84;100.00;101739.87;105515;1254;73094;-79
2023/12/06 04:23:32;;;;;;;31.30;15.60;;;;;;;-1.82;100.00;101745.71;105727;1257;62280;-78
2023/12/06 04:26:00;;;;;;;30.80;14.80;;;;;;;-1.80;100.00;101749.66;105704;1257;72847;-77
2023/12/06 04:28:27;;;;;;;21.40;12.20;;;;;;;-1.80;100.00;101750.70;105679;1254;59715;-79
2023/12/06 04:30:55;;;;;;;26.50;15.00;;;;;;;-1.78;100.00;101753.63;105819;1253;60155;-81
2023/12/06 04:33:23;;;;;;;24.20;15.40;;;;;;;-1.79;100.00;101752.77;105737;1253;72984;-78
2023/12/06 04:35:51;;;;;;;23.10;14.40;;;;;;;-1.82;100.00;101752.75;105719;1255;63589;-78
2023/12/06 04:38:18;;;;;;;26.00;15.00;;;;;;;-1.82;100.00;101751.36;105634;1253;73611;-78
2023/12/06 04:40:47;;;;;;;26.60;15.60;;;;;;;-1.80;100.00;101753.61;105702;1253;61718;-82
2023/12/06 04:43:16;;;;;;;31.40;15.70;;;;;;;-1.79;100.00;101753.46;105759;1253;60666;-79
2023/12/06 04:45:43;;;;;;;26.80;14.50;;;;;;;-1.79;100.00;101755.00;105590;1254;73086;-78
2023/12/06 04:48:11;;;;;;;26.80;14.20;;;;;;;-1.80;100.00;101748.13;105557;1253;63263;-78
2023/12/06 04:50:39;;;;;;;24.00;14.00;;;;;;;-1.82;100.00;101748.80;105631;1253;73792;-78
2023/12/06 04:53:07;;;;;;;20.50;13.30;;;;;;;-1.82;100.00;101743.98;105702;1257;60484;-79
2023/12/06 04:55:35;;;;;;;19.90;12.00;;;;;;;-1.83;100.00;101742.44;105659;1254;59561;-80
2023/12/06 04:58:02;;;;;;;25.30;12.80;;;;;;;-1.82;100.00;101747.09;105648;1257;73106;-78
2023/12/06 05:00:30;;;;;;;26.60;15.10;;;;;;;-1.83;100.00;101747.75;105602;1253;62278;-77
2023/12/06 05:02:59;;;;;;;23.70;13.60;;;;;;;-1.85;100.00;101749.45;105674;1257;72747;-78
2023/12/06 05:05:27;;;;;;;34.00;14.00;;;;;;;-1.86;100.00;101748.59;109404;1253;60624;-78
2023/12/06 05:07:57;;;;;;;29.20;14.00;;;;;;;-1.85;100.00;101754.44;109483;1253;60040;-80
2023/12/06 05:10:28;;;;;;;24.50;13.60;;;;;;;-1.85;100.00;101752.89;109490;1252;73244;-77
2023/12/06 05:12:57;;;;;;;20.30;13.20;;;;;;;-1.84;100.00;101756.83;109514;1253;61555;-79
2023/12/06 05:15:24;;;;;;;24.00;13.40;;;;;;;-1.84;100.00;101759.92;109415;1252;72737;-78
2023/12/06 05:17:54;;;;;;;22.40;15.10;;;;;;;-1.84;100.00;101761.64;109449;1253;60837;-79
2023/12/06 05:20:22;;;;;;;26.30;14.30;;;;;;;-1.82;100.00;101761.65;109471;1253;58762;-80
2023/12/06 05:22:50;;;;;;;27.30;14.70;;;;;;;-1.81;100.00;101771.27;109512;1253;71681;-80
2023/12/06 05:25:17;;;;;;;26.60;14.10;;;;;;;-1.80;100.00;101767.34;109501;1253;63590;-77
2023/12/06 05:27:45;;;;;;;22.50;13.70;;;;;;;-1.77;100.00;101766.16;109471;1253;71411;-78
2023/12/06 05:30:13;;;;;;;27.80;13.10;;;;;;;-1.74;100.00;101767.04;109449;1254;61398;-77
2023/12/06 05:32:41;;;;;;;26.30;14.90;;;;;;;-1.69;100.00;101767.42;109440;1253;58755;-79
2023/12/06 05:35:09;;;;;;;24.70;12.40;;;;;;;-1.63;100.00;101772.45;109483;1253;70950;-78
2023/12/06 05:37:36;;;;;;;24.40;13.00;;;;;;;-1.61;100.00;101770.92;109476;1252;62465;-79
2023/12/06 05:40:06;;;;;;;26.20;13.40;;;;;;;-1.60;100.00;101777.11;109486;1253;72786;-79
2023/12/06 05:42:34;;;;;;;26.00;13.80;;;;;;;-1.58;100.00;101783.81;109452;1254;63270;-78
2023/12/06 05:45:04;;;;;;;26.30;12.90;;;;;;;-1.55;100.00;101785.73;109538;1253;58793;-78
2023/12/06 05:47:32;;;;;;;23.50;14.00;;;;;;;-1.50;100.00;101784.91;109475;1253;71850;-77
2023/12/06 05:50:00;;;;;;;30.10;15.50;;;;;;;-1.41;100.00;101780.02;109481;1253;62436;-78
2023/12/06 05:52:27;;;;;;;23.40;13.60;;;;;;;-1.31;100.00;101779.23;109453;1253;72431;-80
2023/12/06 05:54:59;;;;;;;23.30;14.10;;;;;;;-1.19;100.00;101775.89;109324;1253;59639;-79
2023/12/06 05:57:32;;;;;;;27.00;14.90;;;;;;;-1.07;100.00;101773.23;109420;1253;59955;-79
2023/12/06 06:00:00;;;;;;;26.60;13.10;;;;;;;-0.97;100.00;101768.83;109557;1253;73353;-77
2023/12/06 06:02:37;;;;;;;30.30;14.40;;;;;;;-0.90;100.00;101771.79;109678;1252;63805;-77
2023/12/06 06:05:07;;;;;;;26.10;13.90;;;;;;;-0.87;100.00;101773.52;109703;1253;71394;-79
2023/12/06 06:07:36;;;;;;;26.60;14.30;;;;;;;-0.85;100.00;101772.50;109412;1253;60850;-80
2023/12/06 06:10:04;;;;;;;23.80;14.00;;;;;;;-0.85;100.00;101769.92;109558;1253;58768;-80
2023/12/06 06:12:32;;;;;;;34.40;15.30;;;;;;;-0.83;100.00;101769.59;109583;1253;73577;-79
2023/12/06 06:14:59;;;;;;;47.20;16.00;;;;;;;-0.75;100.00;101763.11;109569;1252;64198;-78
2023/12/06 06:17:27;;;;;;;23.40;13.10;;;;;;;-0.67;100.00;101765.91;109481;1253;73018;-78
2023/12/06 06:19:55;;;;;;;30.20;15.10;;;;;;;-0.67;100.00;101757.84;109457;1254;59931;-78
2023/12/06 06:22:27;;;;;;;32.30;15.40;;;;;;;-0.64;100.00;101761.62;109483;1253;58821;-77
2023/12/06 06:24:55;;;;;;;23.70;14.70;;;;;;;-0.60;100.00;101765.60;109475;1253;72151;-79
2023/12/06 06:27:22;;;;;;;26.90;17.30;;;;;;;-0.57;100.00;101761.14;109492;1252;62414;-78
2023/12/06 06:29:51;;;;;;;25.80;15.90;;;;;;;-0.56;100.00;101759.95;109480;1253;71078;-79
2023/12/06 06:32:19;;;;;;;32.30;16.70;;;;;;;-0.52;100.00;101767.00;109436;1253;60934;-78
2023/12/06 06:34:47;;;;;;;31.20;15.40;;;;;;;-0.48;100.00;101768.23;109475;1253;58992;-78
2023/12/06 06:37:14;;;;;;;27.40;15.60;;;;;;;-0.44;100.00;101771.84;109368;1253;73123;-77
2023/12/06 06:39:43;;;;;;;31.10;16.30;;;;;;;-0.41;100.00;101768.94;109476;1253;63627;-78
2023/12/06 06:42:11;;;;;;;25.80;15.70;;;;;;;-0.38;100.00;101767.91;109364;1253;72846;-77
2023/12/06 06:44:40;;;;;;;27.80;15.50;;;;;;;-0.37;100.00;101764.48;109466;1254;59674;-78
2023/12/06 06:47:23;;;;;;;29.90;15.50;;;;;;;-0.37;100.00;101760.36;109526;1253;60232;-77
2023/12/06 06:49:56;;;;;;;25.50;15.10;;;;;;;-0.35;100.00;101764.49;109527;1255;72746;-78
2023/12/06 06:52:24;;;;;;;27.20;15.40;;;;;;;-0.31;100.00;101768.62;109525;1253;63515;-79
2023/12/06 06:54:56;;;;;;;23.70;14.10;;;;;;;-0.36;100.00;101763.97;109480;1253;72911;-79
2023/12/06 06:57:24;;;;;;;23.60;14.50;;;;;;;-0.38;100.00;101763.45;109467;1254;59677;-79
2023/12/06 06:59:52;;;;;;;22.30;13.90;;;;;;;-0.39;100.00;101766.55;109512;1253;58822;-80
2023/12/06 07:02:20;;;;;;;27.10;15.50;;;;;;;-0.37;100.00;101763.12;109495;1252;73074;-81
2023/12/06 07:04:51;;;;;;;21.20;14.30;;;;;;;-0.29;100.00;101762.27;109387;1253;64020;-79
2023/12/06 07:07:19;;;;;;;22.00;13.10;;;;;;;-0.26;100.00;101763.84;109494;1253;72663;-80
2023/12/06 07:09:48;;;;;;;26.60;15.00;;;;;;;-0.31;100.00;101761.92;109442;1253;62018;-79
2023/12/06 07:12:16;;;;;;;25.00;14.40;;;;;;;-0.38;100.00;101750.57;109563;1253;60020;-78
2023/12/06 07:14:43;;;;;;;23.00;13.40;;;;;;;-0.44;100.00;101756.73;109499;1253;73317;-80
2023/12/06 07:17:11;;;;;;;24.30;12.40;;;;;;;-0.51;100.00;101748.11;109525;1253;62400;-81
2023/12/06 07:19:39;;;;;;;27.40;14.70;;;;;;;-0.52;100.00;101748.80;109448;1253;71844;-78
2023/12/06 07:22:07;;;;;;;26.60;14.20;;;;;;;-0.46;100.00;101748.99;109480;1253;59760;-80
2023/12/06 07:24:34;;;;;;;24.50;13.50;;;;;;;-0.41;100.00;101743.00;109523;1253;58877;-77
2023/12/06 07:27:03;;;;;;;23.80;14.50;;;;;;;-0.39;100.00;101746.80;109471;1252;72981;-79
2023/12/06 07:29:31;;;;;;;26.70;15.40;;;;;;;-0.36;100.00;101741.80;109477;1252;63568;-80
2023/12/06 07:31:59;;;;;;;25.40;14.50;;;;;;;-0.32;100.00;101736.16;109598;1253;71917;-80
2023/12/06 07:34:27;;;;;;;22.70;14.50;;;;;;;-0.22;100.00;101731.72;109539;1253;59591;-80
2023/12/06 07:37:09;;;;;;;23.30;14.60;;;;;;;-0.10;100.00;101735.70;109361;1253;59638;-79
2023/12/06 07:39:37;;;;;;;23.50;13.10;;;;;;;-0.04;100.00;101737.95;109443;1253;72496;-78
2023/12/06 07:42:05;;;;;;;26.70;14.60;;;;;;;-0.06;100.00;101731.59;109541;1252;62443;-79
2023/12/06 07:44:33;;;;;;;21.20;12.90;;;;;;;-0.06;100.00;101735.89;109380;1253;71372;-78
2023/12/06 07:47:01;;;;;;;17.10;12.30;;;;;;;-0.05;100.00;101740.00;109499;1253;59976;-78
2023/12/06 07:49:28;;;;;;;24.50;12.90;;;;;;;-0.07;100.00;101741.23;109606;1253;58792;-77
2023/12/06 07:51:57;;;;;;;25.70;14.00;;;;;;;-0.05;100.00;101736.73;109569;1253;72550;-80
2023/12/06 07:54:25;;;;;;;17.90;11.70;;;;;;;-0.03;100.00;101743.10;109531;1253;64732;-79
2023/12/06 07:56:53;;;;;;;19.30;10.40;;;;;;;-0.02;100.00;101733.15;109471;1253;70469;-79
2023/12/06 07:59:20;;;;;;;23.70;11.00;;;;;;;-0.00;100.00;101734.16;109336;1253;60646;-80
2023/12/06 08:01:50;;;;;;;12.90;9.00;;;;;;;0.02;100.00;101733.48;109511;1253;60018;-78
2023/12/06 08:04:18;;;;;;;15.80;10.20;;;;;;;-0.01;100.00;101734.17;109449;1254;72576;-78
2023/12/06 08:06:46;;;;;;;15.90;10.90;;;;;;;0.00;100.00;101734.70;109503;1253;66739;-79
2023/12/06 08:09:14;;;;;;;13.50;9.30;;;;;;;0.12;100.00;101730.40;109469;1253;72653;-79
2023/12/06 08:11:42;;;;;;;21.40;11.80;;;;;;;0.24;100.00;101724.91;109497;1252;59435;-80
2023/12/06 08:14:10;;;;;;;16.70;10.70;;;;;;;0.30;100.00;101716.65;109539;1253;58730;-79
2023/12/06 08:16:37;;;;;;;21.90;10.90;;;;;;;0.37;100.00;101718.55;109504;1252;72925;-79
2023/12/06 08:19:05;;;;;;;20.10;10.70;;;;;;;0.45;100.00;101718.55;109510;1253;64218;-80
2023/12/06 08:21:33;;;;;;;20.70;9.90;;;;;;;0.46;100.00;101713.89;109495;1253;72411;-79
2023/12/06 08:24:02;;;;;;;19.80;9.50;;;;;;;0.45;100.00;101717.17;109460;1253;59222;-80
2023/12/06 08:26:30;;;;;;;18.40;10.70;;;;;;;0.40;100.00;101712.36;109542;1252;58901;-79
2023/12/06 08:28:57;;;;;;;13.60;8.80;;;;;;;0.34;100.00;101711.48;109363;1252;73775;-79
2023/12/06 08:31:25;;;;;;;19.10;10.00;;;;;;;0.27;100.00;101707.71;109521;1252;62435;-81
2023/12/06 08:33:53;;;;;;;19.20;10.00;;;;;;;0.19;100.00;101708.23;109483;1253;71200;-77
2023/12/06 08:36:21;;;;;;;15.70;9.80;;;;;;;0.19;100.00;101712.70;109476;1253;58086;-78
2023/12/06 08:38:49;;;;;;;16.20;10.20;;;;;;;0.15;100.00;101714.06;109593;1253;60887;-79
2023/12/06 08:41:17;;;;;;;18.50;9.60;;;;;;;0.09;100.00;101709.94;109388;1253;73792;-79
2023/12/06 08:43:45;;;;;;;19.60;9.80;;;;;;;0.05;100.00;101706.14;109503;1253;62882;-79
2023/12/06 08:46:13;;;;;;;16.70;9.00;;;;;;;0.00;100.00;101708.90;109511;1253;71501;-79
2023/12/06 08:48:41;;;;;;;18.20;10.30;;;;;;;-0.02;100.00;101703.23;109337;1256;58147;-80
2023/12/06 08:51:09;;;;;;;19.00;10.30;;;;;;;-0.02;100.00;101703.23;109533;1252;58828;-78
2023/12/06 08:53:36;;;;;;;18.20;10.00;;;;;;;-0.01;100.00;101696.86;109524;1253;74331;-78
2023/12/06 08:56:08;;;;;;;19.50;10.50;;;;;;;-0.01;100.00;101693.09;109548;1252;62469;-78
2023/12/06 08:58:37;;;;;;;17.40;10.30;;;;;;;-0.00;100.00;101689.64;109515;1253;73182;-78
2023/12/06 09:01:05;;;;;;;18.60;10.90;;;;;;;-0.04;100.00;101682.09;109330;1253;58275;-78
2023/12/06 09:03:35;;;;;;;20.70;10.90;;;;;;;-0.05;100.00;101683.79;109539;1253;60637;-77
2023/12/06 09:06:03;;;;;;;15.90;10.20;;;;;;;-0.05;100.00;101672.96;109326;1253;72759;-78
2023/12/06 09:08:32;;;;;;;16.70;9.80;;;;;;;-0.07;100.00;101669.53;109547;1252;63981;-79
2023/12/06 09:11:00;;;;;;;17.60;12.00;;;;;;;-0.07;100.00;101665.41;109579;1253;74003;-80
2023/12/06 09:13:28;;;;;;;20.60;10.50;;;;;;;-0.07;100.00;101665.74;109391;1252;58311;-80
2023/12/06 09:15:56;;;;;;;16.10;10.50;;;;;;;-0.05;100.00;101664.02;109492;1252;58616;-79
2023/12/06 09:18:23;;;;;;;23.90;12.60;;;;;;;-0.05;100.00;101654.23;109605;1252;75913;-80
2023/12/06 09:20:52;;;;;;;19.60;10.70;;;;;;;-0.04;100.00;101652.16;109529;1253;63684;-79
2023/12/06 09:23:19;;;;;;;22.40;13.30;;;;;;;-0.03;100.00;101648.38;109440;1253;71524;-78
2023/12/06 09:25:47;;;;;;;23.90;11.30;;;;;;;-0.02;100.00;101648.91;109496;1252;58161;-80
2023/12/06 09:28:15;;;;;;;19.60;11.90;;;;;;;0.03;100.00;101651.65;109453;1253;60094;-77
2023/12/06 09:30:43;;;;;;;19.00;11.10;;;;;;;0.08;100.00;101650.27;109554;1253;73419;-78
2023/12/06 09:33:10;;;;;;;19.40;12.00;;;;;;;0.10;100.00;101647.52;109553;1252;63913;-80
2023/12/06 09:35:38;;;;;;;22.80;12.40;;;;;;;0.13;100.00;101648.90;109395;1253;72438;-78
2023/12/06 09:38:06;;;;;;;19.70;10.50;;;;;;;0.15;100.00;101651.98;109457;1252;58552;-77
2023/12/06 09:40:34;;;;;;;18.90;11.40;;;;;;;0.11;100.00;101651.13;109516;1257;59004;-78
2023/12/06 09:43:04;;;;;;;21.90;11.90;;;;;;;0.06;100.00;101640.65;109129;1257;73993;-77
2023/12/06 09:45:32;;;;;;;17.20;12.00;;;;;;;0.05;100.00;101634.30;109140;1258;63440;-79
2023/12/06 09:48:00;;;;;;;18.90;11.90;;;;;;;0.08;100.00;101634.63;109114;1257;72393;-78
2023/12/06 09:50:28;;;;;;;24.20;11.30;;;;;;;0.14;100.00;101634.64;108962;1257;58488;-77
2023/12/06 09:52:55;;;;;;;22.20;11.30;;;;;;;0.17;100.00;101628.78;109119;1257;59108;-79
2023/12/06 09:55:24;;;;;;;14.30;9.00;;;;;;;0.19;100.00;101635.31;109124;1257;76228;-79
2023/12/06 09:57:52;;;;;;;15.50;10.00;;;;;;;0.22;100.00;101628.77;109092;1257;62547;-79
2023/12/06 10:00:24;;;;;;;22.40;10.60;;;;;;;0.25;100.00;101628.42;109085;1257;71896;-79
2023/12/06 10:02:54;;;;;;;17.90;11.20;;;;;;;0.27;100.00;101624.13;109099;1260;58152;-81
2023/12/06 10:05:22;;;;;;;17.40;10.20;;;;;;;0.30;100.00;101626.02;109140;1260;58277;-79
2023/12/06 10:07:50;;;;;;;18.60;10.80;;;;;;;0.33;100.00;101629.45;109103;1257;73523;-80
2023/12/06 10:10:21;;;;;;;18.80;10.50;;;;;;;0.34;100.00;101624.30;109119;1257;62821;-80
2023/12/06 10:12:53;;;;;;;16.70;10.20;;;;;;;0.34;100.00;101617.24;108950;1257;72478;-79
2023/12/06 10:15:21;;;;;;;23.20;12.80;;;;;;;0.34;100.00;101608.46;109060;1257;58521;-79
2023/12/06 10:17:49;;;;;;;19.40;12.00;;;;;;;0.38;100.00;101604.16;109049;1258;60359;-79
2023/12/06 10:20:20;;;;;;;17.30;10.70;;;;;;;0.43;100.00;101606.23;109083;1258;72669;-82
2023/12/06 10:22:48;;;;;;;17.60;10.20;;;;;;;0.47;100.00;101604.30;108998;1260;62752;-79
2023/12/06 10:25:16;;;;;;;15.80;10.10;;;;;;;0.48;100.00;101601.91;108982;1257;72397;-81
2023/12/06 10:27:45;;;;;;;16.10;9.40;;;;;;;0.49;100.00;101598.46;109008;1257;58570;-80
2023/12/06 10:30:20;;;;;;;16.90;10.20;;;;;;;0.47;100.00;101595.38;109144;1257;61153;-79
2023/12/06 10:32:48;;;;;;;12.30;8.50;;;;;;;0.46;100.00;101596.58;109121;1257;73834;-79
2023/12/06 10:35:16;;;;;;;14.40;10.50;;;;;;;0.44;100.00;101592.98;109049;1258;63851;-80
2023/12/06 10:37:44;;;;;;;11.30;8.40;;;;;;;0.41;100.00;101594.36;109033;1257;70351;-78
2023/12/06 10:40:12;;;;;;;14.60;9.20;;;;;;;0.42;100.00;101580.23;109111;1257;59298;-79
2023/12/06 10:42:41;;;;;;;18.90;11.80;;;;;;;0.45;100.00;101577.66;109050;1258;59988;-81
2023/12/06 10:45:09;;;;;;;13.70;9.20;;;;;;;0.51;100.00;101577.82;109107;1257;74081;-78
2023/12/06 10:47:38;;;;;;;13.20;8.70;;;;;;;0.56;100.00;101577.10;109113;1257;62274;-80
2023/12/06 10:50:05;;;;;;;12.00;7.60;;;;;;;0.64;100.00;101583.61;109060;1263;74876;-80
2023/12/06 10:52:33;;;;;;;9.90;8.20;;;;;;;0.68;100.00;101578.44;109031;1258;58454;-78
2023/12/06 10:55:01;;;;;;;19.40;10.20;;;;;;;0.70;100.00;101576.71;109003;1257;58719;-76
2023/12/06 10:57:30;;;;;;;12.90;9.10;;;;;;;0.73;100.00;101577.39;109102;1257;74741;-78
2023/12/06 10:59:58;;;;;;;13.80;9.40;;;;;;;0.72;100.00;101564.67;109063;1257;62252;-77
2023/12/06 11:02:28;;;;;;;13.90;8.50;;;;;;;0.73;100.00;101567.58;109222;1257;72469;-76